Time;durP1;ratioP1;P1;durP2;ratioP2;P2;SDS_P1;SDS_P2;PMS_P1;PMS_P2;Temp;Humidity;BMP_temperature;BMP_pressure;BME280_temperature;BME280_humidity;BME280_pressure;Samples;Min_cycle;Max_cycle;Signal;HPM_P1;HPM_P2
2021/01/26 00:02:11;;;;;;;9.35;2.88;;;;;;;;;;5027161;28;20087;-51
2021/01/26 00:04:37;;;;;;;8.75;2.72;;;;;;;;;;5026002;28;22294;-54
2021/01/26 00:07:03;;;;;;;11.45;3.38;;;;;;;;;;5027698;28;20694;-51
2021/01/26 00:09:29;;;;;;;7.15;2.53;;;;;;;;;;5024804;28;20048;-52
2021/01/26 00:11:58;;;;;;;19.10;3.00;;;;;;;;;;5020295;28;20620;-51
2021/01/26 00:14:24;;;;;;;8.38;2.42;;;;;;;;;;5019775;28;20060;-54
2021/01/26 00:16:50;;;;;;;6.85;2.65;;;;;;;;;;5019577;28;20183;-52
2021/01/26 00:19:17;;;;;;;14.38;3.40;;;;;;;;;;5021883;28;20050;-53
2021/01/26 00:21:43;;;;;;;16.70;3.53;;;;;;;;;;5044598;28;20040;-54
2021/01/26 00:24:09;;;;;;;10.85;3.58;;;;;;;;;;5049030;28;20056;-52
2021/01/26 00:26:35;;;;;;;7.63;3.00;;;;;;;;;;5044109;28;20041;-54
2021/01/26 00:29:01;;;;;;;8.50;2.40;;;;;;;;;;5044325;28;20039;-52
2021/01/26 00:31:27;;;;;;;6.82;2.92;;;;;;;;;;5045024;28;20091;-51
2021/01/26 00:33:53;;;;;;;8.15;2.80;;;;;;;;;;5046251;28;20064;-52
2021/01/26 00:36:19;;;;;;;10.27;2.58;;;;;;;;;;5021111;28;20048;-53
2021/01/26 00:38:45;;;;;;;9.20;3.00;;;;;;;;;;5038535;28;20059;-54
2021/01/26 00:41:11;;;;;;;6.50;2.72;;;;;;;;;;5039270;28;20078;-52
2021/01/26 00:43:37;;;;;;;13.23;2.55;;;;;;;;;;5042014;28;21722;-51
2021/01/26 00:46:03;;;;;;;6.35;2.33;;;;;;;;;;5043174;28;20045;-53
2021/01/26 00:48:29;;;;;;;7.45;2.92;;;;;;;;;;5023237;28;20040;-51
2021/01/26 00:50:55;;;;;;;9.98;2.78;;;;;;;;;;5041988;28;20572;-54
2021/01/26 00:53:21;;;;;;;12.15;2.50;;;;;;;;;;5032658;28;20045;-53
2021/01/26 00:55:47;;;;;;;11.27;2.58;;;;;;;;;;5043790;28;20954;-53
2021/01/26 00:58:14;;;;;;;10.13;2.78;;;;;;;;;;5043388;28;20509;-53
2021/01/26 01:00:40;;;;;;;9.18;3.10;;;;;;;;;;5028809;28;20075;-54
2021/01/26 01:03:06;;;;;;;7.25;2.75;;;;;;;;;;5041055;28;21641;-54
2021/01/26 01:05:32;;;;;;;6.35;2.10;;;;;;;;;;5042118;28;20127;-51
2021/01/26 01:07:59;;;;;;;8.48;1.80;;;;;;;;;;5048526;28;20049;-52
2021/01/26 01:10:30;;;;;;;6.95;2.65;;;;;;;;;;5049051;28;20586;-51
2021/01/26 01:12:55;;;;;;;9.65;2.55;;;;;;;;;;5051344;28;20102;-54
2021/01/26 01:15:23;;;;;;;9.13;3.40;;;;;;;;;;5051593;28;20041;-52
2021/01/26 01:17:49;;;;;;;12.35;3.00;;;;;;;;;;5051312;28;20104;-56
2021/01/26 01:20:16;;;;;;;5.20;1.88;;;;;;;;;;5053138;28;20033;-52
2021/01/26 01:22:42;;;;;;;5.95;1.50;;;;;;;;;;5049938;28;20083;-53
2021/01/26 01:25:09;;;;;;;13.88;2.00;;;;;;;;;;5049965;28;20568;-52
2021/01/26 01:27:34;;;;;;;7.03;2.33;;;;;;;;;;5050902;28;20764;-54
2021/01/26 01:30:00;;;;;;;5.45;1.77;;;;;;;;;;5053336;28;20052;-52
2021/01/26 01:32:29;;;;;;;6.82;2.50;;;;;;;;;;5050477;28;20044;-54
2021/01/26 01:34:55;;;;;;;7.85;2.92;;;;;;;;;;5051952;28;20051;-53
2021/01/26 01:37:21;;;;;;;8.02;2.25;;;;;;;;;;5031584;28;20075;-55
2021/01/26 01:39:47;;;;;;;5.05;1.98;;;;;;;;;;5051341;28;20056;-55
2021/01/26 01:42:15;;;;;;;6.30;2.30;;;;;;;;;;5050877;28;20036;-52
2021/01/26 01:44:41;;;;;;;3.70;1.65;;;;;;;;;;5052153;28;20523;-54
2021/01/26 01:47:17;;;;;;;4.97;2.05;;;;;;;;;;5049965;28;20127;-51
2021/01/26 01:49:44;;;;;;;5.07;1.67;;;;;;;;;;5051700;28;20480;-51
2021/01/26 01:52:15;;;;;;;8.02;2.30;;;;;;;;;;5050803;28;20071;-51
2021/01/26 01:54:43;;;;;;;4.75;1.95;;;;;;;;;;5040490;28;20291;-53
2021/01/26 01:57:27;;;;;;;6.80;2.03;;;;;;;;;;5050862;28;21088;-55
2021/01/26 01:59:56;;;;;;;5.00;1.98;;;;;;;;;;5048971;28;20079;-53
2021/01/26 02:02:22;;;;;;;6.78;2.03;;;;;;;;;;5047747;28;20071;-52
2021/01/26 02:04:51;;;;;;;7.07;2.15;;;;;;;;;;5040416;28;20029;-53
2021/01/26 02:07:17;;;;;;;5.63;1.90;;;;;;;;;;5050581;28;20025;-53
2021/01/26 02:09:43;;;;;;;5.35;2.50;;;;;;;;;;5051487;28;20063;-52
2021/01/26 02:12:10;;;;;;;6.05;2.35;;;;;;;;;;5049162;28;20048;-54
2021/01/26 02:14:42;;;;;;;7.30;1.80;;;;;;;;;;5047712;28;20040;-53
2021/01/26 02:17:25;;;;;;;7.13;2.15;;;;;;;;;;5052529;28;20048;-53
2021/01/26 02:20:09;;;;;;;5.18;1.83;;;;;;;;;;5051618;28;20163;-51
2021/01/26 02:22:42;;;;;;;6.22;2.35;;;;;;;;;;5048209;28;20040;-55
2021/01/26 02:25:26;;;;;;;7.68;2.05;;;;;;;;;;5051107;28;20045;-52
2021/01/26 02:27:55;;;;;;;8.98;3.00;;;;;;;;;;5049672;28;20048;-54
2021/01/26 02:30:21;;;;;;;5.13;2.10;;;;;;;;;;5050841;28;20044;-52
2021/01/26 02:33:05;;;;;;;7.38;2.42;;;;;;;;;;5050062;28;20467;-53
2021/01/26 02:35:31;;;;;;;4.80;2.10;;;;;;;;;;5049261;28;20052;-52
2021/01/26 02:38:15;;;;;;;12.50;3.03;;;;;;;;;;5048986;28;20045;-52
2021/01/26 02:41:01;;;;;;;4.60;1.67;;;;;;;;;;5049139;28;20048;-51
2021/01/26 02:43:34;;;;;;;9.57;3.13;;;;;;;;;;4990817;28;20037;-52
2021/01/26 02:46:08;;;;;;;4.13;1.80;;;;;;;;;;5051487;28;20036;-55
2021/01/26 02:48:33;;;;;;;;;;;;;;;;;;5052975;28;20048;-56
2021/01/26 02:51:18;;;;;;;4.47;1.88;;;;;;;;;;5051741;28;19928;-55
2021/01/26 02:53:51;;;;;;;7.30;2.22;;;;;;;;;;5048755;28;20120;-52
2021/01/26 02:56:36;;;;;;;8.00;2.72;;;;;;;;;;5051655;28;20080;-55
2021/01/26 02:59:20;;;;;;;5.13;1.70;;;;;;;;;;5051314;28;20037;-52
2021/01/26 03:01:53;;;;;;;8.30;2.05;;;;;;;;;;5051966;28;20053;-51
2021/01/26 03:04:30;;;;;;;5.18;2.05;;;;;;;;;;5046729;28;20044;-52
2021/01/26 03:06:58;;;;;;;9.73;2.97;;;;;;;;;;5053423;28;20090;-54
2021/01/26 03:09:29;;;;;;;7.47;1.92;;;;;;;;;;5051197;28;20113;-55
2021/01/26 03:11:59;;;;;;;5.13;2.17;;;;;;;;;;5051278;28;20054;-55
2021/01/26 03:14:36;;;;;;;9.52;2.83;;;;;;;;;;5051328;28;20040;-55
2021/01/26 03:17:22;;;;;;;7.55;2.05;;;;;;;;;;5049907;28;20404;-53
2021/01/26 03:19:50;;;;;;;4.43;1.70;;;;;;;;;;5009600;28;20057;-51
2021/01/26 03:22:17;;;;;;;7.93;2.00;;;;;;;;;;5047183;28;20029;-52
2021/01/26 03:24:53;;;;;;;5.85;1.73;;;;;;;;;;5005286;28;21173;-51
2021/01/26 03:27:22;;;;;;;3.67;1.40;;;;;;;;;;4985253;28;20056;-54
2021/01/26 03:29:49;;;;;;;5.20;1.77;;;;;;;;;;4976449;28;20041;-54
2021/01/26 03:32:20;;;;;;;9.52;2.85;;;;;;;;;;4977478;28;20053;-52
2021/01/26 03:34:46;;;;;;;5.43;2.17;;;;;;;;;;4982165;28;20053;-54
2021/01/26 03:37:13;;;;;;;4.32;1.77;;;;;;;;;;4991622;28;20046;-57
2021/01/26 03:39:38;;;;;;;6.72;2.08;;;;;;;;;;4986107;28;20101;-57
2021/01/26 03:42:05;;;;;;;5.20;1.98;;;;;;;;;;4978065;28;20585;-56
2021/01/26 03:44:31;;;;;;;4.97;2.10;;;;;;;;;;4991621;28;20806;-53
2021/01/26 03:47:21;;;;;;;6.05;2.47;;;;;;;;;;4976904;28;20510;-55
2021/01/26 03:50:17;;;;;;;8.43;2.30;;;;;;;;;;4973757;28;20070;-56
2021/01/26 03:52:49;;;;;;;6.15;1.95;;;;;;;;;;4989943;28;20557;-53
2021/01/26 03:55:27;;;;;;;6.47;2.17;;;;;;;;;;4975999;28;20034;-55
2021/01/26 03:58:05;;;;;;;9.13;2.67;;;;;;;;;;4972556;28;20052;-52
2021/01/26 04:00:34;;;;;;;7.97;2.92;;;;;;;;;;4975354;28;20645;-54
2021/01/26 04:03:16;;;;;;;9.07;2.53;;;;;;;;;;4975603;28;20062;-55
2021/01/26 04:05:47;;;;;;;6.57;1.52;;;;;;;;;;4988352;28;20045;-53
2021/01/26 04:08:15;;;;;;;4.95;2.00;;;;;;;;;;4990547;28;20190;-53
2021/01/26 04:10:45;;;;;;;7.60;2.35;;;;;;;;;;4971689;28;20742;-52
2021/01/26 04:13:12;;;;;;;6.93;1.92;;;;;;;;;;4973563;28;20050;-53
2021/01/26 04:15:47;;;;;;;4.78;1.58;;;;;;;;;;4976879;28;20046;-55
2021/01/26 04:18:14;;;;;;;7.32;1.65;;;;;;;;;;4983914;28;20666;-57
2021/01/26 04:20:41;;;;;;;4.60;1.38;;;;;;;;;;4988204;28;20050;-55
2021/01/26 04:23:07;;;;;;;6.18;1.20;;;;;;;;;;4980249;28;20059;-54
2021/01/26 04:25:40;;;;;;;4.82;1.90;;;;;;;;;;4979654;28;20086;-54
2021/01/26 04:28:07;;;;;;;4.60;1.75;;;;;;;;;;4998228;28;20346;-55
2021/01/26 04:30:34;;;;;;;5.15;1.80;;;;;;;;;;4977930;28;20034;-54
2021/01/26 04:33:01;;;;;;;7.60;1.88;;;;;;;;;;4979898;28;20042;-54
2021/01/26 04:35:27;;;;;;;6.13;1.73;;;;;;;;;;4969533;28;20042;-52
2021/01/26 04:37:54;;;;;;;4.70;1.38;;;;;;;;;;4971242;28;20038;-55
2021/01/26 04:40:20;;;;;;;3.88;1.65;;;;;;;;;;4977276;28;20627;-55
2021/01/26 04:42:47;;;;;;;3.25;1.40;;;;;;;;;;4964584;28;20502;-55
2021/01/26 04:45:22;;;;;;;5.50;2.35;;;;;;;;;;4966726;28;20043;-56
2021/01/26 04:48:03;;;;;;;3.83;1.50;;;;;;;;;;4964570;28;20050;-52
2021/01/26 04:50:47;;;;;;;6.57;2.15;;;;;;;;;;4971600;28;20112;-53
2021/01/26 04:53:32;;;;;;;8.35;2.20;;;;;;;;;;4964470;28;20094;-56
2021/01/26 04:56:01;;;;;;;10.25;2.13;;;;;;;;;;4963060;28;20067;-52
2021/01/26 04:58:36;;;;;;;5.97;2.40;;;;;;;;;;4964045;28;20597;-52
2021/01/26 05:01:12;;;;;;;6.57;1.90;;;;;;;;;;4963770;28;20336;-53
2021/01/26 05:03:54;;;;;;;4.75;2.15;;;;;;;;;;4963792;28;20057;-52
2021/01/26 05:06:21;;;;;;;3.72;1.13;;;;;;;;;;4963280;28;20042;-52
2021/01/26 05:08:51;;;;;;;9.82;1.42;;;;;;;;;;4964201;28;20049;-55
2021/01/26 05:11:22;;;;;;;6.70;2.38;;;;;;;;;;4965415;28;20062;-55
2021/01/26 05:13:50;;;;;;;8.70;1.83;;;;;;;;;;4979244;28;20455;-55
2021/01/26 05:16:21;;;;;;;6.20;2.15;;;;;;;;;;4963099;28;20109;-55
2021/01/26 05:19:05;;;;;;;6.22;2.38;;;;;;;;;;4978597;28;20049;-55
2021/01/26 05:21:34;;;;;;;9.95;2.33;;;;;;;;;;4961306;28;20031;-56
2021/01/26 05:24:05;;;;;;;7.25;2.45;;;;;;;;;;4963399;28;20047;-55
2021/01/26 05:26:31;;;;;;;9.77;2.72;;;;;;;;;;4963323;28;21015;-53
2021/01/26 05:28:57;;;;;;;8.80;3.20;;;;;;;;;;4963329;28;20080;-55
2021/01/26 05:31:27;;;;;;;5.72;2.17;;;;;;;;;;4961932;28;22732;-54
2021/01/26 05:33:56;;;;;;;8.20;2.97;;;;;;;;;;4963323;28;20498;-54
2021/01/26 05:36:22;;;;;;;6.15;2.10;;;;;;;;;;4962305;28;20040;-52
2021/01/26 05:38:50;;;;;;;7.32;2.22;;;;;;;;;;4962941;28;20042;-54
2021/01/26 05:41:16;;;;;;;8.35;3.03;;;;;;;;;;4962825;28;20148;-52
2021/01/26 05:43:42;;;;;;;8.45;3.08;;;;;;;;;;4978487;28;20055;-52
2021/01/26 05:46:09;;;;;;;10.13;3.25;;;;;;;;;;4959961;28;20045;-52
2021/01/26 05:48:48;;;;;;;7.25;2.33;;;;;;;;;;4962714;28;20047;-52
2021/01/26 05:51:19;;;;;;;11.48;3.17;;;;;;;;;;4962122;28;20201;-52
2021/01/26 05:53:50;;;;;;;9.07;2.83;;;;;;;;;;4961034;28;20047;-53
2021/01/26 05:56:17;;;;;;;17.52;3.28;;;;;;;;;;4963336;28;20045;-55
2021/01/26 05:58:46;;;;;;;11.52;2.67;;;;;;;;;;4962445;28;20043;-51
2021/01/26 06:01:32;;;;;;;11.63;3.58;;;;;;;;;;4961564;28;20704;-51
2021/01/26 06:04:04;;;;;;;8.68;3.88;;;;;;;;;;4960353;28;20047;-53
2021/01/26 06:06:30;;;;;;;8.98;2.78;;;;;;;;;;4960627;28;20042;-54
2021/01/26 06:08:57;;;;;;;7.82;2.95;;;;;;;;;;4972762;28;20399;-51
2021/01/26 06:11:31;;;;;;;10.10;3.42;;;;;;;;;;4980378;28;20100;-52
2021/01/26 06:14:14;;;;;;;15.63;4.13;;;;;;;;;;4982296;28;20149;-50
2021/01/26 06:16:40;;;;;;;20.23;3.90;;;;;;;;;;4981376;28;20038;-54
2021/01/26 06:19:07;;;;;;;10.15;3.38;;;;;;;;;;4982379;28;20106;-52
2021/01/26 06:21:53;;;;;;;15.60;4.03;;;;;;;;;;4977841;28;20089;-53
2021/01/26 06:24:20;;;;;;;10.27;3.20;;;;;;;;;;4981024;28;20053;-53
2021/01/26 06:26:57;;;;;;;18.42;4.55;;;;;;;;;;4981278;28;20081;-54
2021/01/26 06:29:52;;;;;;;18.13;4.63;;;;;;;;;;4982538;28;20090;-51
2021/01/26 06:32:38;;;;;;;19.48;4.50;;;;;;;;;;4976238;28;20446;-53
2021/01/26 06:35:19;;;;;;;11.65;4.90;;;;;;;;;;4982109;28;20061;-52
2021/01/26 06:37:45;;;;;;;16.52;5.10;;;;;;;;;;4980332;28;20053;-53
2021/01/26 06:40:25;;;;;;;18.92;3.78;;;;;;;;;;4980779;28;20038;-56
2021/01/26 06:42:54;;;;;;;11.60;3.80;;;;;;;;;;4971336;28;20399;-53
2021/01/26 06:45:23;;;;;;;12.43;3.53;;;;;;;;;;4963886;28;20039;-51
2021/01/26 06:47:54;;;;;;;15.82;4.20;;;;;;;;;;4962333;28;20113;-51
2021/01/26 06:50:33;;;;;;;12.65;4.20;;;;;;;;;;4961587;28;20082;-51
2021/01/26 06:53:09;;;;;;;16.00;5.00;;;;;;;;;;4963247;28;20556;-51
2021/01/26 06:55:44;;;;;;;18.48;3.95;;;;;;;;;;4963488;28;20058;-54
2021/01/26 06:58:13;;;;;;;11.13;4.05;;;;;;;;;;4961805;28;20129;-52
2021/01/26 07:00:47;;;;;;;16.50;4.20;;;;;;;;;;4964007;28;20125;-53
2021/01/26 07:03:12;;;;;;;;;;;;;;;;;;4964002;28;20065;-55
2021/01/26 07:05:56;;;;;;;13.18;3.67;;;;;;;;;;4960873;28;20415;-53
2021/01/26 07:08:31;;;;;;;13.88;3.65;;;;;;;;;;4961004;28;20050;-52
2021/01/26 07:11:12;;;;;;;9.13;3.65;;;;;;;;;;4961204;28;20479;-56
2021/01/26 07:13:43;;;;;;;12.00;3.63;;;;;;;;;;4962091;28;20050;-55
2021/01/26 07:16:15;;;;;;;12.40;4.28;;;;;;;;;;4967406;28;20113;-52
2021/01/26 07:18:41;;;;;;;15.20;4.93;;;;;;;;;;4961996;28;22169;-55
2021/01/26 07:21:33;;;;;;;10.65;3.72;;;;;;;;;;4961096;28;20069;-53
2021/01/26 07:24:17;;;;;;;23.90;4.55;;;;;;;;;;4975429;28;20075;-52
2021/01/26 07:26:58;;;;;;;16.58;4.45;;;;;;;;;;4960796;28;20992;-55
2021/01/26 07:29:30;;;;;;;13.32;3.25;;;;;;;;;;4960422;28;20133;-53
2021/01/26 07:32:03;;;;;;;15.85;4.28;;;;;;;;;;4960878;28;20038;-53
2021/01/26 07:34:55;;;;;;;12.95;4.28;;;;;;;;;;4965471;28;20130;-55
2021/01/26 07:37:35;;;;;;;15.52;4.20;;;;;;;;;;4970548;28;20138;-55
2021/01/26 07:40:11;;;;;;;12.38;3.83;;;;;;;;;;4974191;28;20750;-54
2021/01/26 07:42:47;;;;;;;21.80;4.35;;;;;;;;;;4968791;28;20050;-55
2021/01/26 07:45:24;;;;;;;17.23;4.70;;;;;;;;;;4964430;28;20047;-52
2021/01/26 07:47:54;;;;;;;19.58;6.05;;;;;;;;;;4963969;28;20534;-56
2021/01/26 07:50:28;;;;;;;20.58;4.47;;;;;;;;;;4960200;28;20030;-52
2021/01/26 07:52:56;;;;;;;10.02;3.67;;;;;;;;;;4963094;28;20479;-54
2021/01/26 07:55:26;;;;;;;13.05;4.72;;;;;;;;;;4976006;28;20039;-55
2021/01/26 07:57:57;;;;;;;11.40;2.15;;;;;;;;;;4962312;28;20047;-52
2021/01/26 08:00:25;;;;;;;9.65;4.10;;;;;;;;;;4960568;28;20117;-52
2021/01/26 08:02:53;;;;;;;10.93;3.58;;;;;;;;;;4959687;28;20043;-51
2021/01/26 08:05:20;;;;;;;18.58;4.85;;;;;;;;;;4961237;28;20940;-51
2021/01/26 08:07:46;;;;;;;8.85;3.72;;;;;;;;;;4961835;28;20502;-51
2021/01/26 08:10:22;;;;;;;19.48;4.90;;;;;;;;;;4961298;28;20047;-53
2021/01/26 08:12:49;;;;;;;8.40;2.75;;;;;;;;;;4964083;28;20046;-52
2021/01/26 08:15:27;;;;;;;10.65;3.40;;;;;;;;;;4966369;28;20134;-50
2021/01/26 08:17:54;;;;;;;5.82;2.13;;;;;;;;;;4979485;28;20089;-50
2021/01/26 08:20:31;;;;;;;13.02;4.90;;;;;;;;;;4967512;28;20038;-53
2021/01/26 08:22:59;;;;;;;14.32;4.47;;;;;;;;;;4984948;28;20093;-51
2021/01/26 08:25:27;;;;;;;11.77;3.47;;;;;;;;;;4968014;28;20282;-53
2021/01/26 08:27:57;;;;;;;8.05;3.22;;;;;;;;;;4964654;28;20035;-54
2021/01/26 08:30:48;;;;;;;10.75;3.88;;;;;;;;;;4964472;28;20046;-52
2021/01/26 08:33:16;;;;;;;11.15;3.25;;;;;;;;;;4965633;28;20054;-54
2021/01/26 08:35:48;;;;;;;12.15;2.85;;;;;;;;;;4968338;28;20055;-53
2021/01/26 08:38:32;;;;;;;8.55;3.50;;;;;;;;;;4964164;28;20039;-52
2021/01/26 08:40:58;;;;;;;10.93;3.67;;;;;;;;;;4963025;28;20381;-53
2021/01/26 08:43:41;;;;;;;11.27;3.10;;;;;;;;;;4970244;28;20054;-52
2021/01/26 08:46:08;;;;;;;22.20;3.97;;;;;;;;;;4968594;28;20051;-54
2021/01/26 08:48:34;;;;;;;7.25;2.80;;;;;;;;;;4951861;28;20039;-51
2021/01/26 08:51:05;;;;;;;10.20;2.78;;;;;;;;;;4964065;28;20100;-51
2021/01/26 08:53:31;;;;;;;13.52;3.17;;;;;;;;;;4963231;28;21968;-51
2021/01/26 08:56:04;;;;;;;10.68;3.78;;;;;;;;;;4964222;28;20039;-52
2021/01/26 08:58:36;;;;;;;8.68;2.88;;;;;;;;;;4963381;28;20126;-52
2021/01/26 09:01:02;;;;;;;13.27;4.18;;;;;;;;;;4963469;28;20070;-51
2021/01/26 09:03:28;;;;;;;13.75;3.75;;;;;;;;;;4964926;28;20160;-52
2021/01/26 09:06:02;;;;;;;12.65;3.90;;;;;;;;;;4963966;28;20042;-51
2021/01/26 09:08:27;;;;;;;;;;;;;;;;;;4963894;28;20096;-51
2021/01/26 09:10:54;;;;;;;12.00;3.95;;;;;;;;;;4962520;28;20345;-52
2021/01/26 09:13:28;;;;;;;13.05;3.40;;;;;;;;;;4963619;28;20065;-52
2021/01/26 09:15:56;;;;;;;7.43;3.38;;;;;;;;;;4962716;28;20093;-52
2021/01/26 09:18:23;;;;;;;8.07;3.20;;;;;;;;;;4963007;28;20514;-51
2021/01/26 09:20:52;;;;;;;8.18;3.50;;;;;;;;;;4964527;28;20039;-52
2021/01/26 09:23:21;;;;;;;9.80;3.10;;;;;;;;;;4963561;28;20070;-51
2021/01/26 09:25:47;;;;;;;14.07;5.05;;;;;;;;;;4964988;28;20058;-52
2021/01/26 09:28:14;;;;;;;8.77;3.78;;;;;;;;;;4965438;28;20070;-51
2021/01/26 09:30:41;;;;;;;8.68;3.00;;;;;;;;;;4963064;28;20042;-51
2021/01/26 09:33:10;;;;;;;8.10;2.90;;;;;;;;;;4961329;28;20065;-53
2021/01/26 09:35:39;;;;;;;11.27;3.45;;;;;;;;;;4962173;28;20069;-51
2021/01/26 09:38:05;;;;;;;10.57;2.95;;;;;;;;;;4964187;28;20054;-52
2021/01/26 09:40:31;;;;;;;11.82;3.85;;;;;;;;;;4962355;28;20070;-52
2021/01/26 09:43:15;;;;;;;10.27;3.50;;;;;;;;;;4973744;28;20057;-52
2021/01/26 09:45:41;;;;;;;8.35;3.05;;;;;;;;;;4979344;28;20038;-53
2021/01/26 09:48:08;;;;;;;11.13;3.28;;;;;;;;;;4983094;28;20047;-52
2021/01/26 09:50:34;;;;;;;10.18;2.83;;;;;;;;;;4981610;28;20479;-51
2021/01/26 09:53:02;;;;;;;8.80;3.75;;;;;;;;;;4985088;28;20038;-54
2021/01/26 09:55:29;;;;;;;12.02;3.03;;;;;;;;;;4984393;28;20084;-51
2021/01/26 09:57:56;;;;;;;10.07;3.55;;;;;;;;;;4983404;28;20042;-51
2021/01/26 10:00:23;;;;;;;7.53;2.85;;;;;;;;;;4981053;28;20080;-51
2021/01/26 10:02:59;;;;;;;11.10;3.50;;;;;;;;;;4983737;28;20459;-54
2021/01/26 10:05:26;;;;;;;9.75;3.20;;;;;;;;;;4981139;28;20672;-50
2021/01/26 10:08:11;;;;;;;7.65;2.55;;;;;;;;;;4981454;28;20057;-51
2021/01/26 10:10:37;;;;;;;7.53;3.08;;;;;;;;;;4981276;28;20427;-53
2021/01/26 10:13:38;;;;;;;7.00;2.70;;;;;;;;;;4982912;28;20048;-51
2021/01/26 10:16:22;;;;;;;9.00;3.42;;;;;;;;;;4965564;28;20542;-53
2021/01/26 10:18:48;;;;;;;8.70;3.15;;;;;;;;;;4976722;28;20133;-52
2021/01/26 10:21:14;;;;;;;10.65;2.40;;;;;;;;;;4962908;28;20049;-51
2021/01/26 10:23:44;;;;;;;8.23;3.00;;;;;;;;;;4957043;28;20050;-51
2021/01/26 10:26:16;;;;;;;6.90;3.22;;;;;;;;;;4977732;28;20038;-53
2021/01/26 10:29:14;;;;;;;8.68;2.75;;;;;;;;;;4962871;28;20035;-52
2021/01/26 10:31:51;;;;;;;7.18;2.35;;;;;;;;;;4976061;28;20116;-52
2021/01/26 10:34:18;;;;;;;8.10;2.35;;;;;;;;;;4961754;28;20037;-55
2021/01/26 10:36:44;;;;;;;5.32;1.75;;;;;;;;;;4973690;28;20070;-51
2021/01/26 10:39:25;;;;;;;12.25;4.13;;;;;;;;;;4974232;28;20150;-51
2021/01/26 10:42:01;;;;;;;5.70;2.20;;;;;;;;;;4969120;28;20046;-52
2021/01/26 10:44:27;;;;;;;6.28;2.38;;;;;;;;;;4972245;28;20050;-54
2021/01/26 10:46:54;;;;;;;8.80;3.38;;;;;;;;;;4964454;28;20170;-52
2021/01/26 10:49:35;;;;;;;5.07;2.50;;;;;;;;;;4961392;28;20110;-54
2021/01/26 10:52:05;;;;;;;8.30;3.10;;;;;;;;;;4963564;28;20556;-54
2021/01/26 10:54:31;;;;;;;12.18;3.72;;;;;;;;;;4962803;28;22253;-55
2021/01/26 10:56:57;;;;;;;7.93;2.75;;;;;;;;;;4967886;28;20145;-54
2021/01/26 10:59:23;;;;;;;6.90;2.47;;;;;;;;;;4971581;28;20038;-52
2021/01/26 11:01:49;;;;;;;8.55;3.17;;;;;;;;;;4960865;28;20130;-51
2021/01/26 11:04:17;;;;;;;7.13;2.80;;;;;;;;;;4961986;28;20069;-55
2021/01/26 11:06:43;;;;;;;6.82;3.03;;;;;;;;;;4968356;28;20042;-51
2021/01/26 11:09:09;;;;;;;7.63;2.88;;;;;;;;;;4962659;28;20162;-53
2021/01/26 11:11:35;;;;;;;7.82;3.10;;;;;;;;;;4960773;28;20046;-54
2021/01/26 11:14:02;;;;;;;8.23;3.22;;;;;;;;;;4963815;28;20046;-52
2021/01/26 11:16:28;;;;;;;10.93;3.40;;;;;;;;;;4961160;28;20050;-51
2021/01/26 11:18:54;;;;;;;10.43;3.67;;;;;;;;;;4961403;28;20552;-51
2021/01/26 11:21:21;;;;;;;7.90;2.85;;;;;;;;;;4965628;28;20039;-51
2021/01/26 11:23:46;;;;;;;10.93;4.47;;;;;;;;;;4979576;28;20309;-52
2021/01/26 11:26:14;;;;;;;8.05;2.55;;;;;;;;;;4982162;28;20050;-51
2021/01/26 11:28:40;;;;;;;7.53;2.50;;;;;;;;;;4980685;28;20480;-51
2021/01/26 11:31:06;;;;;;;5.63;2.55;;;;;;;;;;4981161;28;20057;-52
2021/01/26 11:33:32;;;;;;;7.68;3.17;;;;;;;;;;4981209;28;20069;-51
2021/01/26 11:35:58;;;;;;;9.75;3.13;;;;;;;;;;4981239;28;20042;-51
2021/01/26 11:38:24;;;;;;;5.97;2.55;;;;;;;;;;4980626;28;20052;-53
2021/01/26 11:40:50;;;;;;;8.98;2.95;;;;;;;;;;4979731;28;20041;-54
2021/01/26 11:43:17;;;;;;;7.65;2.95;;;;;;;;;;4980232;28;20050;-54
2021/01/26 11:45:44;;;;;;;7.43;3.00;;;;;;;;;;4982872;28;20038;-51
2021/01/26 11:48:10;;;;;;;12.10;3.28;;;;;;;;;;4985318;28;20510;-55
2021/01/26 11:50:36;;;;;;;12.35;2.85;;;;;;;;;;4983895;28;20101;-53
2021/01/26 11:53:04;;;;;;;10.07;3.45;;;;;;;;;;4985723;28;20038;-51
2021/01/26 11:55:31;;;;;;;11.20;4.13;;;;;;;;;;4981863;28;20391;-52
2021/01/26 11:57:56;;;;;;;5.45;2.47;;;;;;;;;;4999393;28;20082;-52
2021/01/26 12:00:24;;;;;;;14.77;3.88;;;;;;;;;;4982928;28;20138;-54
2021/01/26 12:02:50;;;;;;;10.82;2.88;;;;;;;;;;4984347;28;20046;-53
2021/01/26 12:05:17;;;;;;;9.95;3.72;;;;;;;;;;4985190;28;20084;-52
2021/01/26 12:07:43;;;;;;;10.60;3.38;;;;;;;;;;4983611;28;20046;-54
2021/01/26 12:10:09;;;;;;;9.95;3.85;;;;;;;;;;4984316;28;20047;-51
2021/01/26 12:12:35;;;;;;;16.60;4.13;;;;;;;;;;4984284;28;20034;-51
2021/01/26 12:15:01;;;;;;;14.55;3.63;;;;;;;;;;4982862;28;20049;-53
2021/01/26 12:17:27;;;;;;;11.93;4.05;;;;;;;;;;4985764;28;22069;-55
2021/01/26 12:19:53;;;;;;;11.18;3.42;;;;;;;;;;4982161;28;20659;-53
2021/01/26 12:22:18;;;;;;;9.45;3.88;;;;;;;;;;4983814;28;20038;-54
2021/01/26 12:24:44;;;;;;;16.15;4.95;;;;;;;;;;4984831;28;20161;-52
2021/01/26 12:27:10;;;;;;;13.27;3.50;;;;;;;;;;4985089;28;20147;-53
2021/01/26 12:29:36;;;;;;;12.02;3.22;;;;;;;;;;4983877;28;20157;-53
2021/01/26 12:32:02;;;;;;;13.10;3.50;;;;;;;;;;4983925;28;20415;-52
2021/01/26 12:34:28;;;;;;;14.88;2.65;;;;;;;;;;4983714;28;20151;-51
2021/01/26 12:36:54;;;;;;;9.82;3.50;;;;;;;;;;4984190;28;20035;-53
2021/01/26 12:39:20;;;;;;;16.45;3.95;;;;;;;;;;4983096;28;20042;-51
2021/01/26 12:41:46;;;;;;;12.60;3.45;;;;;;;;;;4984632;28;20653;-52
2021/01/26 12:44:12;;;;;;;12.55;3.80;;;;;;;;;;4984229;28;20061;-53
2021/01/26 12:46:38;;;;;;;13.88;3.97;;;;;;;;;;4999891;28;20054;-53
2021/01/26 12:49:05;;;;;;;16.73;5.40;;;;;;;;;;4982684;28;20038;-51
2021/01/26 12:51:31;;;;;;;19.90;4.78;;;;;;;;;;4981633;28;20042;-53
2021/01/26 12:53:57;;;;;;;17.63;4.70;;;;;;;;;;4997508;28;20434;-53
2021/01/26 12:56:23;;;;;;;17.73;4.75;;;;;;;;;;4982240;28;20669;-53
2021/01/26 12:58:49;;;;;;;19.85;4.65;;;;;;;;;;4984227;28;20120;-51
2021/01/26 13:01:15;;;;;;;14.43;5.05;;;;;;;;;;4983276;28;20148;-52
2021/01/26 13:03:41;;;;;;;17.25;5.03;;;;;;;;;;4983524;28;20053;-53
2021/01/26 13:06:06;;;;;;;25.30;5.90;;;;;;;;;;4983104;28;20435;-53
2021/01/26 13:08:32;;;;;;;20.05;6.15;;;;;;;;;;4981809;28;20042;-51
2021/01/26 13:10:58;;;;;;;18.17;5.00;;;;;;;;;;4980803;28;20046;-54
2021/01/26 13:13:24;;;;;;;24.10;4.93;;;;;;;;;;4981222;28;20928;-51
2021/01/26 13:15:50;;;;;;;18.92;4.35;;;;;;;;;;4982948;28;20062;-54
2021/01/26 13:18:16;;;;;;;27.60;5.85;;;;;;;;;;4983767;28;20042;-50
2021/01/26 13:20:42;;;;;;;23.23;5.28;;;;;;;;;;4981057;28;20038;-52
2021/01/26 13:23:08;;;;;;;20.05;5.20;;;;;;;;;;4982949;28;20155;-52
2021/01/26 13:25:35;;;;;;;20.42;5.88;;;;;;;;;;4982434;28;20114;-54
2021/01/26 13:28:02;;;;;;;20.75;5.63;;;;;;;;;;4982873;28;20042;-54
2021/01/26 13:30:28;;;;;;;17.10;6.50;;;;;;;;;;4982053;28;20227;-55
2021/01/26 13:32:54;;;;;;;19.92;5.03;;;;;;;;;;4980609;28;20137;-52
2021/01/26 13:35:22;;;;;;;16.83;5.22;;;;;;;;;;4971854;28;20991;-51
2021/01/26 13:37:48;;;;;;;13.40;4.93;;;;;;;;;;4980531;28;20046;-51
2021/01/26 13:40:14;;;;;;;19.05;6.03;;;;;;;;;;4981342;28;20135;-52
2021/01/26 13:42:40;;;;;;;22.00;5.45;;;;;;;;;;4981320;28;20140;-52
2021/01/26 13:45:07;;;;;;;25.10;6.15;;;;;;;;;;4983763;28;20460;-51
2021/01/26 13:47:34;;;;;;;25.48;8.00;;;;;;;;;;4979886;28;20042;-52
2021/01/26 13:50:01;;;;;;;22.33;6.20;;;;;;;;;;4982167;28;20050;-54
2021/01/26 13:52:27;;;;;;;26.77;5.22;;;;;;;;;;4980751;28;20053;-52
2021/01/26 13:54:53;;;;;;;39.97;7.25;;;;;;;;;;4981405;28;20099;-54
2021/01/26 13:57:19;;;;;;;36.97;6.97;;;;;;;;;;4980457;28;20073;-51
2021/01/26 13:59:45;;;;;;;23.73;6.47;;;;;;;;;;4983082;28;20141;-50
2021/01/26 14:02:11;;;;;;;23.05;5.75;;;;;;;;;;4981679;28;20073;-51
2021/01/26 14:04:37;;;;;;;29.30;7.35;;;;;;;;;;4979733;28;20062;-51
2021/01/26 14:07:03;;;;;;;32.55;8.00;;;;;;;;;;4981486;28;20116;-50
2021/01/26 14:09:29;;;;;;;28.20;7.97;;;;;;;;;;4980803;28;20091;-52
2021/01/26 14:11:55;;;;;;;28.35;7.25;;;;;;;;;;4980619;28;20092;-53
2021/01/26 14:14:22;;;;;;;20.73;6.03;;;;;;;;;;4980196;28;20057;-50
2021/01/26 14:16:48;;;;;;;27.02;6.30;;;;;;;;;;4983656;28;20060;-49
2021/01/26 14:19:15;;;;;;;32.08;5.88;;;;;;;;;;4981493;28;20038;-53
2021/01/26 14:21:40;;;;;;;37.05;6.47;;;;;;;;;;4980586;28;20068;-53
2021/01/26 14:24:06;;;;;;;17.42;5.63;;;;;;;;;;4979719;28;22010;-54
2021/01/26 14:26:32;;;;;;;29.52;8.18;;;;;;;;;;4980753;28;20097;-51
2021/01/26 14:28:58;;;;;;;20.15;5.55;;;;;;;;;;4981293;28;20034;-54
2021/01/26 14:31:24;;;;;;;23.75;6.40;;;;;;;;;;4980583;28;20053;-51
2021/01/26 14:33:50;;;;;;;22.48;7.10;;;;;;;;;;4976160;28;21021;-54
2021/01/26 14:36:16;;;;;;;21.48;6.15;;;;;;;;;;4981918;28;20142;-51
2021/01/26 14:38:42;;;;;;;24.55;6.45;;;;;;;;;;4981490;28;20124;-52
2021/01/26 14:41:07;;;;;;;36.92;7.88;;;;;;;;;;4981314;28;20050;-54
2021/01/26 14:43:34;;;;;;;36.00;6.90;;;;;;;;;;4982595;28;20140;-54
2021/01/26 14:46:00;;;;;;;28.98;7.95;;;;;;;;;;4983197;28;20725;-51
2021/01/26 14:48:26;;;;;;;31.55;7.15;;;;;;;;;;4981056;28;20053;-54
2021/01/26 14:50:52;;;;;;;26.60;7.30;;;;;;;;;;4981296;28;20048;-53
2021/01/26 14:53:18;;;;;;;34.65;7.35;;;;;;;;;;4981024;28;20048;-51
2021/01/26 14:55:44;;;;;;;36.00;6.85;;;;;;;;;;4982582;28;20398;-51